sensor_id;sensor_type;location;lat;lon;timestamp;pressure;altitude;pressure_sealevel;temperature
71564;BMP180;59391;52.504;13.438;2023-05-02T00:00:43;100945.00;;;20.00
71564;BMP180;59391;52.504;13.438;2023-05-02T00:03:10;100947.00;;;20.00
71564;BMP180;59391;52.504;13.438;2023-05-02T00:05:36;100941.00;;;20.00
71564;BMP180;59391;52.504;13.438;2023-05-02T00:08:02;100946.00;;;20.00
71564;BMP180;59391;52.504;13.438;2023-05-02T00:10:27;100943.00;;;19.90
71564;BMP180;59391;52.504;13.438;2023-05-02T00:12:53;100949.00;;;19.90
71564;BMP180;59391;52.504;13.438;2023-05-02T00:15:19;100943.00;;;19.90
71564;BMP180;59391;52.504;13.438;2023-05-02T00:17:44;100937.00;;;19.80
71564;BMP180;59391;52.504;13.438;2023-05-02T00:20:11;100940.00;;;19.80
71564;BMP180;59391;52.504;13.438;2023-05-02T00:22:37;100934.00;;;19.80
71564;BMP180;59391;52.504;13.438;2023-05-02T00:25:04;100933.00;;;19.80
71564;BMP180;59391;52.504;13.438;2023-05-02T00:27:30;100935.00;;;19.70
71564;BMP180;59391;52.504;13.438;2023-05-02T00:29:56;100940.00;;;19.70
71564;BMP180;59391;52.504;13.438;2023-05-02T00:32:23;100932.00;;;19.70
71564;BMP180;59391;52.504;13.438;2023-05-02T00:34:49;100932.00;;;19.60
71564;BMP180;59391;52.504;13.438;2023-05-02T00:37:15;100932.00;;;19.60
71564;BMP180;59391;52.504;13.438;2023-05-02T00:39:40;100939.00;;;19.60
71564;BMP180;59391;52.504;13.438;2023-05-02T00:42:06;100933.00;;;19.60
71564;BMP180;59391;52.504;13.438;2023-05-02T00:44:32;100941.00;;;19.50
71564;BMP180;59391;52.504;13.438;2023-05-02T00:47:00;100936.00;;;19.50
71564;BMP180;59391;52.504;13.438;2023-05-02T00:49:26;100926.00;;;19.50
71564;BMP180;59391;52.504;13.438;2023-05-02T00:51:53;100938.00;;;19.40
71564;BMP180;59391;52.504;13.438;2023-05-02T00:54:19;100934.00;;;19.40
71564;BMP180;59391;52.504;13.438;2023-05-02T00:56:44;100939.00;;;19.40
71564;BMP180;59391;52.504;13.438;2023-05-02T00:59:12;100940.00;;;19.40
71564;BMP180;59391;52.504;13.438;2023-05-02T01:02:15;100935.00;;;19.30
71564;BMP180;59391;52.504;13.438;2023-05-02T01:05:16;100934.00;;;19.30
71564;BMP180;59391;52.504;13.438;2023-05-02T01:07:58;100935.00;;;19.20
71564;BMP180;59391;52.504;13.438;2023-05-02T01:10:53;100945.00;;;19.20
71564;BMP180;59391;52.504;13.438;2023-05-02T01:13:31;100941.00;;;19.10
71564;BMP180;59391;52.504;13.438;2023-05-02T01:16:00;100935.00;;;19.10
71564;BMP180;59391;52.504;13.438;2023-05-02T01:18:32;100943.00;;;19.10
71564;BMP180;59391;52.504;13.438;2023-05-02T01:21:06;100943.00;;;19.00
71564;BMP180;59391;52.504;13.438;2023-05-02T01:24:03;100938.00;;;19.00
71564;BMP180;59391;52.504;13.438;2023-05-02T01:27:00;100940.00;;;18.90
71564;BMP180;59391;52.504;13.438;2023-05-02T01:29:29;100947.00;;;18.90
71564;BMP180;59391;52.504;13.438;2023-05-02T01:31:56;100953.00;;;18.90
71564;BMP180;59391;52.504;13.438;2023-05-02T01:34:26;100954.00;;;18.90
71564;BMP180;59391;52.504;13.438;2023-05-02T01:36:55;100954.00;;;18.80
71564;BMP180;59391;52.504;13.438;2023-05-02T01:39:24;100953.00;;;18.80
71564;BMP180;59391;52.504;13.438;2023-05-02T01:41:55;100959.00;;;18.80
71564;BMP180;59391;52.504;13.438;2023-05-02T01:44:23;100965.00;;;18.80
71564;BMP180;59391;52.504;13.438;2023-05-02T01:46:50;100960.00;;;18.80
71564;BMP180;59391;52.504;13.438;2023-05-02T01:49:18;100965.00;;;18.70
71564;BMP180;59391;52.504;13.438;2023-05-02T01:51:47;100967.00;;;18.70
71564;BMP180;59391;52.504;13.438;2023-05-02T01:54:16;100966.00;;;18.70
71564;BMP180;59391;52.504;13.438;2023-05-02T01:56:43;100967.00;;;18.60
71564;BMP180;59391;52.504;13.438;2023-05-02T01:59:18;100980.00;;;18.60
71564;BMP180;59391;52.504;13.438;2023-05-02T02:01:49;100970.00;;;18.50
71564;BMP180;59391;52.504;13.438;2023-05-02T02:04:18;100965.00;;;18.50
71564;BMP180;59391;52.504;13.438;2023-05-02T02:06:52;100957.00;;;18.40
71564;BMP180;59391;52.504;13.438;2023-05-02T02:09:19;100960.00;;;18.40
71564;BMP180;59391;52.504;13.438;2023-05-02T02:12:22;100972.00;;;18.40
71564;BMP180;59391;52.504;13.438;2023-05-02T02:15:29;100973.00;;;18.30
71564;BMP180;59391;52.504;13.438;2023-05-02T02:18:01;100974.00;;;18.20
71564;BMP180;59391;52.504;13.438;2023-05-02T02:20:30;100970.00;;;18.20
71564;BMP180;59391;52.504;13.438;2023-05-02T02:22:59;100982.00;;;18.10
71564;BMP180;59391;52.504;13.438;2023-05-02T02:25:27;100978.00;;;18.10
71564;BMP180;59391;52.504;13.438;2023-05-02T02:27:54;100990.00;;;18.00
71564;BMP180;59391;52.504;13.438;2023-05-02T02:30:19;100986.00;;;18.00
71564;BMP180;59391;52.504;13.438;2023-05-02T02:32:45;100999.00;;;17.90
71564;BMP180;59391;52.504;13.438;2023-05-02T02:35:10;100987.00;;;17.90
71564;BMP180;59391;52.504;13.438;2023-05-02T02:37:48;101005.00;;;17.80
71564;BMP180;59391;52.504;13.438;2023-05-02T02:40:30;101011.00;;;17.70
71564;BMP180;59391;52.504;13.438;2023-05-02T02:43:39;101006.00;;;17.60
71564;BMP180;59391;52.504;13.438;2023-05-02T02:46:29;101020.00;;;17.60
71564;BMP180;59391;52.504;13.438;2023-05-02T02:52:39;101021.00;;;17.40
71564;BMP180;59391;52.504;13.438;2023-05-02T02:55:11;101031.00;;;17.40
71564;BMP180;59391;52.504;13.438;2023-05-02T02:57:57;101027.00;;;17.30
71564;BMP180;59391;52.504;13.438;2023-05-02T03:00:26;101036.00;;;17.30
71564;BMP180;59391;52.504;13.438;2023-05-02T03:02:53;101038.00;;;17.30
71564;BMP180;59391;52.504;13.438;2023-05-02T03:05:21;101046.00;;;17.20
71564;BMP180;59391;52.504;13.438;2023-05-02T03:07:47;101044.00;;;17.20
71564;BMP180;59391;52.504;13.438;2023-05-02T03:10:13;101044.00;;;17.20
71564;BMP180;59391;52.504;13.438;2023-05-02T03:12:38;101052.00;;;17.10
71564;BMP180;59391;52.504;13.438;2023-05-02T03:15:45;101063.00;;;17.10
71564;BMP180;59391;52.504;13.438;2023-05-02T03:18:23;101056.00;;;17.00
71564;BMP180;59391;52.504;13.438;2023-05-02T03:20:49;101073.00;;;17.00
71564;BMP180;59391;52.504;13.438;2023-05-02T03:23:15;101086.00;;;17.00
71564;BMP180;59391;52.504;13.438;2023-05-02T03:25:40;101084.00;;;16.90
71564;BMP180;59391;52.504;13.438;2023-05-02T03:28:06;101089.00;;;16.90
71564;BMP180;59391;52.504;13.438;2023-05-02T03:30:31;101082.00;;;16.90
71564;BMP180;59391;52.504;13.438;2023-05-02T03:32:57;101110.00;;;16.80
71564;BMP180;59391;52.504;13.438;2023-05-02T03:35:24;101106.00;;;16.80
71564;BMP180;59391;52.504;13.438;2023-05-02T03:37:50;101108.00;;;16.80
71564;BMP180;59391;52.504;13.438;2023-05-02T03:40:15;101106.00;;;16.80
71564;BMP180;59391;52.504;13.438;2023-05-02T03:42:43;101109.00;;;16.70
71564;BMP180;59391;52.504;13.438;2023-05-02T03:45:09;101104.00;;;16.70
71564;BMP180;59391;52.504;13.438;2023-05-02T03:47:37;101117.00;;;16.70
71564;BMP180;59391;52.504;13.438;2023-05-02T03:50:03;101121.00;;;16.70
71564;BMP180;59391;52.504;13.438;2023-05-02T03:52:29;101118.00;;;16.60
71564;BMP180;59391;52.504;13.438;2023-05-02T03:54:55;101123.00;;;16.60
71564;BMP180;59391;52.504;13.438;2023-05-02T03:57:21;101119.00;;;16.60
71564;BMP180;59391;52.504;13.438;2023-05-02T03:59:49;101125.00;;;16.60
71564;BMP180;59391;52.504;13.438;2023-05-02T04:02:14;101129.00;;;16.50
71564;BMP180;59391;52.504;13.438;2023-05-02T04:04:40;101141.00;;;16.50
71564;BMP180;59391;52.504;13.438;2023-05-02T04:07:07;101134.00;;;16.50
71564;BMP180;59391;52.504;13.438;2023-05-02T04:09:34;101132.00;;;16.50
71564;BMP180;59391;52.504;13.438;2023-05-02T04:11:59;101146.00;;;16.50
71564;BMP180;59391;52.504;13.438;2023-05-02T04:14:26;101139.00;;;16.40
71564;BMP180;59391;52.504;13.438;2023-05-02T04:16:51;101149.00;;;16.40
71564;BMP180;59391;52.504;13.438;2023-05-02T04:19:18;101152.00;;;16.40
71564;BMP180;59391;52.504;13.438;2023-05-02T04:21:44;101160.00;;;16.40
71564;BMP180;59391;52.504;13.438;2023-05-02T04:24:10;101158.00;;;16.40
71564;BMP180;59391;52.504;13.438;2023-05-02T04:26:36;101161.00;;;16.40
71564;BMP180;59391;52.504;13.438;2023-05-02T04:29:02;101165.00;;;16.40
71564;BMP180;59391;52.504;13.438;2023-05-02T04:31:30;101175.00;;;16.40
71564;BMP180;59391;52.504;13.438;2023-05-02T04:33:56;101178.00;;;16.40
71564;BMP180;59391;52.504;13.438;2023-05-02T04:36:24;101188.00;;;16.40
71564;BMP180;59391;52.504;13.438;2023-05-02T04:38:50;101180.00;;;16.40
71564;BMP180;59391;52.504;13.438;2023-05-02T04:41:16;101174.00;;;16.40
71564;BMP180;59391;52.504;13.438;2023-05-02T04:43:41;101171.00;;;16.40
71564;BMP180;59391;52.504;13.438;2023-05-02T04:46:07;101175.00;;;16.40
71564;BMP180;59391;52.504;13.438;2023-05-02T04:48:33;101179.00;;;16.40
71564;BMP180;59391;52.504;13.438;2023-05-02T04:50:58;101180.00;;;16.50
71564;BMP180;59391;52.504;13.438;2023-05-02T04:53:24;101187.00;;;16.50
71564;BMP180;59391;52.504;13.438;2023-05-02T04:55:49;101192.00;;;16.50
71564;BMP180;59391;52.504;13.438;2023-05-02T04:58:15;101192.00;;;16.50
71564;BMP180;59391;52.504;13.438;2023-05-02T05:00:41;101201.00;;;16.50
71564;BMP180;59391;52.504;13.438;2023-05-02T05:03:06;101192.00;;;16.50
71564;BMP180;59391;52.504;13.438;2023-05-02T05:05:32;101208.00;;;16.50
71564;BMP180;59391;52.504;13.438;2023-05-02T05:07:58;101212.00;;;16.60
71564;BMP180;59391;52.504;13.438;2023-05-02T05:10:23;101218.00;;;16.60
71564;BMP180;59391;52.504;13.438;2023-05-02T05:12:49;101220.00;;;16.60
71564;BMP180;59391;52.504;13.438;2023-05-02T05:15:15;101221.00;;;16.60
71564;BMP180;59391;52.504;13.438;2023-05-02T05:17:41;101218.00;;;16.60
71564;BMP180;59391;52.504;13.438;2023-05-02T05:20:07;101230.00;;;16.60
71564;BMP180;59391;52.504;13.438;2023-05-02T05:22:39;101241.00;;;16.60
71564;BMP180;59391;52.504;13.438;2023-05-02T05:25:07;101236.00;;;16.60
71564;BMP180;59391;52.504;13.438;2023-05-02T05:27:33;101242.00;;;16.60
71564;BMP180;59391;52.504;13.438;2023-05-02T05:29:59;101244.00;;;16.50
71564;BMP180;59391;52.504;13.438;2023-05-02T05:32:25;101250.00;;;16.50
71564;BMP180;59391;52.504;13.438;2023-05-02T05:34:52;101255.00;;;16.50
71564;BMP180;59391;52.504;13.438;2023-05-02T05:37:21;101261.00;;;16.50
71564;BMP180;59391;52.504;13.438;2023-05-02T05:39:47;101263.00;;;16.50
71564;BMP180;59391;52.504;13.438;2023-05-02T05:42:13;101271.00;;;16.50
71564;BMP180;59391;52.504;13.438;2023-05-02T05:44:38;101274.00;;;16.50
71564;BMP180;59391;52.504;13.438;2023-05-02T05:47:04;101272.00;;;16.50
71564;BMP180;59391;52.504;13.438;2023-05-02T05:49:31;101276.00;;;16.50
71564;BMP180;59391;52.504;13.438;2023-05-02T05:51:57;101282.00;;;16.50
71564;BMP180;59391;52.504;13.438;2023-05-02T05:54:23;101282.00;;;16.50
71564;BMP180;59391;52.504;13.438;2023-05-02T05:56:49;101298.00;;;16.60
71564;BMP180;59391;52.504;13.438;2023-05-02T05:59:14;101288.00;;;16.50
71564;BMP180;59391;52.504;13.438;2023-05-02T06:01:40;101287.00;;;16.50
71564;BMP180;59391;52.504;13.438;2023-05-02T06:04:06;101303.00;;;16.60
71564;BMP180;59391;52.504;13.438;2023-05-02T06:06:32;101291.00;;;16.60
71564;BMP180;59391;52.504;13.438;2023-05-02T06:08:59;101312.00;;;16.60
71564;BMP180;59391;52.504;13.438;2023-05-02T06:11:25;101309.00;;;16.60
71564;BMP180;59391;52.504;13.438;2023-05-02T06:13:52;101326.00;;;16.60
71564;BMP180;59391;52.504;13.438;2023-05-02T06:16:18;101328.00;;;16.60
71564;BMP180;59391;52.504;13.438;2023-05-02T06:18:45;101337.00;;;16.60
71564;BMP180;59391;52.504;13.438;2023-05-02T06:21:11;101336.00;;;16.60
71564;BMP180;59391;52.504;13.438;2023-05-02T06:23:37;101348.00;;;16.70
71564;BMP180;59391;52.504;13.438;2023-05-02T06:26:04;101342.00;;;16.70
71564;BMP180;59391;52.504;13.438;2023-05-02T06:28:30;101352.00;;;16.70
71564;BMP180;59391;52.504;13.438;2023-05-02T06:31:02;101349.00;;;16.80
71564;BMP180;59391;52.504;13.438;2023-05-02T06:33:28;101336.00;;;16.80
71564;BMP180;59391;52.504;13.438;2023-05-02T06:35:54;101347.00;;;16.80
71564;BMP180;59391;52.504;13.438;2023-05-02T06:38:20;101359.00;;;16.90
71564;BMP180;59391;52.504;13.438;2023-05-02T06:40:47;101366.00;;;17.00
71564;BMP180;59391;52.504;13.438;2023-05-02T06:43:15;101368.00;;;17.00
71564;BMP180;59391;52.504;13.438;2023-05-02T06:45:41;101365.00;;;17.00
71564;BMP180;59391;52.504;13.438;2023-05-02T06:48:08;101371.00;;;17.10
71564;BMP180;59391;52.504;13.438;2023-05-02T06:50:34;101369.00;;;17.10
71564;BMP180;59391;52.504;13.438;2023-05-02T06:53:01;101375.00;;;17.10
71564;BMP180;59391;52.504;13.438;2023-05-02T06:55:27;101389.00;;;17.20
71564;BMP180;59391;52.504;13.438;2023-05-02T06:57:53;101395.00;;;17.20
71564;BMP180;59391;52.504;13.438;2023-05-02T07:00:19;101379.00;;;17.30
71564;BMP180;59391;52.504;13.438;2023-05-02T07:02:47;101404.00;;;17.30
71564;BMP180;59391;52.504;13.438;2023-05-02T07:05:14;101403.00;;;17.30
71564;BMP180;59391;52.504;13.438;2023-05-02T07:07:41;101403.00;;;17.30
71564;BMP180;59391;52.504;13.438;2023-05-02T07:10:08;101417.00;;;17.30
71564;BMP180;59391;52.504;13.438;2023-05-02T07:12:34;101425.00;;;17.30
71564;BMP180;59391;52.504;13.438;2023-05-02T07:14:59;101422.00;;;17.30
71564;BMP180;59391;52.504;13.438;2023-05-02T07:17:25;101438.00;;;17.40
71564;BMP180;59391;52.504;13.438;2023-05-02T07:19:52;101430.00;;;17.50
71564;BMP180;59391;52.504;13.438;2023-05-02T07:22:17;101432.00;;;17.60
71564;BMP180;59391;52.504;13.438;2023-05-02T07:24:43;101427.00;;;17.70
71564;BMP180;59391;52.504;13.438;2023-05-02T07:27:10;101432.00;;;17.80
71564;BMP180;59391;52.504;13.438;2023-05-02T07:29:37;101437.00;;;17.90
71564;BMP180;59391;52.504;13.438;2023-05-02T07:32:03;101442.00;;;18.00
71564;BMP180;59391;52.504;13.438;2023-05-02T07:34:29;101444.00;;;18.10
71564;BMP180;59391;52.504;13.438;2023-05-02T07:36:55;101436.00;;;18.20
71564;BMP180;59391;52.504;13.438;2023-05-02T07:39:22;101448.00;;;18.20
71564;BMP180;59391;52.504;13.438;2023-05-02T07:41:52;101456.00;;;18.40
71564;BMP180;59391;52.504;13.438;2023-05-02T07:44:19;101458.00;;;18.40
71564;BMP180;59391;52.504;13.438;2023-05-02T07:46:44;101457.00;;;18.50
71564;BMP180;59391;52.504;13.438;2023-05-02T07:49:10;101455.00;;;18.40
71564;BMP180;59391;52.504;13.438;2023-05-02T07:51:36;101457.00;;;18.30
71564;BMP180;59391;52.504;13.438;2023-05-02T07:54:02;101462.00;;;18.30
71564;BMP180;59391;52.504;13.438;2023-05-02T07:56:28;101478.00;;;18.30
71564;BMP180;59391;52.504;13.438;2023-05-02T07:58:54;101481.00;;;18.30
71564;BMP180;59391;52.504;13.438;2023-05-02T08:01:20;101474.00;;;18.20
71564;BMP180;59391;52.504;13.438;2023-05-02T08:03:45;101474.00;;;18.20
71564;BMP180;59391;52.504;13.438;2023-05-02T08:06:12;101475.00;;;18.10
71564;BMP180;59391;52.504;13.438;2023-05-02T08:08:38;101472.00;;;18.10
71564;BMP180;59391;52.504;13.438;2023-05-02T08:11:04;101490.00;;;18.10
71564;BMP180;59391;52.504;13.438;2023-05-02T08:13:30;101491.00;;;18.10
71564;BMP180;59391;52.504;13.438;2023-05-02T08:15:55;101492.00;;;18.20
71564;BMP180;59391;52.504;13.438;2023-05-02T08:18:26;101491.00;;;18.10
71564;BMP180;59391;52.504;13.438;2023-05-02T08:20:54;101494.00;;;18.10
71564;BMP180;59391;52.504;13.438;2023-05-02T08:23:20;101501.00;;;18.20
71564;BMP180;59391;52.504;13.438;2023-05-02T08:25:46;101502.00;;;18.20
71564;BMP180;59391;52.504;13.438;2023-05-02T08:28:12;101505.00;;;18.20
71564;BMP180;59391;52.504;13.438;2023-05-02T08:30:37;101521.00;;;18.30
71564;BMP180;59391;52.504;13.438;2023-05-02T08:33:03;101507.00;;;18.30
71564;BMP180;59391;52.504;13.438;2023-05-02T08:35:28;101510.00;;;18.40
71564;BMP180;59391;52.504;13.438;2023-05-02T08:37:55;101524.00;;;18.50
71564;BMP180;59391;52.504;13.438;2023-05-02T08:40:21;101507.00;;;18.60
71564;BMP180;59391;52.504;13.438;2023-05-02T08:42:47;101518.00;;;18.70
71564;BMP180;59391;52.504;13.438;2023-05-02T08:45:14;101528.00;;;18.70
71564;BMP180;59391;52.504;13.438;2023-05-02T08:47:41;101511.00;;;18.80
71564;BMP180;59391;52.504;13.438;2023-05-02T08:50:09;101537.00;;;18.80
71564;BMP180;59391;52.504;13.438;2023-05-02T08:52:37;101530.00;;;18.90
71564;BMP180;59391;52.504;13.438;2023-05-02T08:55:05;101532.00;;;18.90
71564;BMP180;59391;52.504;13.438;2023-05-02T08:57:32;101540.00;;;18.90
71564;BMP180;59391;52.504;13.438;2023-05-02T08:59:58;101545.00;;;19.00
71564;BMP180;59391;52.504;13.438;2023-05-02T09:02:46;101548.00;;;19.00
71564;BMP180;59391;52.504;13.438;2023-05-02T09:05:19;101552.00;;;19.00
71564;BMP180;59391;52.504;13.438;2023-05-02T09:07:50;101551.00;;;19.00
71564;BMP180;59391;52.504;13.438;2023-05-02T09:10:16;101557.00;;;18.90
71564;BMP180;59391;52.504;13.438;2023-05-02T09:12:42;101566.00;;;18.90
71564;BMP180;59391;52.504;13.438;2023-05-02T09:15:09;101577.00;;;18.80
71564;BMP180;59391;52.504;13.438;2023-05-02T09:17:43;101579.00;;;18.70
71564;BMP180;59391;52.504;13.438;2023-05-02T09:20:14;101571.00;;;18.70
71564;BMP180;59391;52.504;13.438;2023-05-02T09:22:49;101584.00;;;18.70
71564;BMP180;59391;52.504;13.438;2023-05-02T09:25:16;101597.00;;;18.80
71564;BMP180;59391;52.504;13.438;2023-05-02T09:27:53;101585.00;;;18.80
71564;BMP180;59391;52.504;13.438;2023-05-02T09:30:24;101586.00;;;18.90
71564;BMP180;59391;52.504;13.438;2023-05-02T09:32:51;101589.00;;;19.10
71564;BMP180;59391;52.504;13.438;2023-05-02T09:35:20;101589.00;;;19.10
71564;BMP180;59391;52.504;13.438;2023-05-02T09:37:54;101595.00;;;19.00
71564;BMP180;59391;52.504;13.438;2023-05-02T09:40:20;101607.00;;;18.90
71564;BMP180;59391;52.504;13.438;2023-05-02T09:42:46;101580.00;;;18.80
71564;BMP180;59391;52.504;13.438;2023-05-02T09:45:23;101595.00;;;18.70
71564;BMP180;59391;52.504;13.438;2023-05-02T09:47:50;101602.00;;;18.70
71564;BMP180;59391;52.504;13.438;2023-05-02T09:50:35;101605.00;;;18.60
71564;BMP180;59391;52.504;13.438;2023-05-02T09:53:07;101603.00;;;18.60
71564;BMP180;59391;52.504;13.438;2023-05-02T09:55:34;101608.00;;;18.60
71564;BMP180;59391;52.504;13.438;2023-05-02T09:58:00;101606.00;;;18.60
71564;BMP180;59391;52.504;13.438;2023-05-02T10:00:43;101634.00;;;18.60
71564;BMP180;59391;52.504;13.438;2023-05-02T10:03:10;101621.00;;;18.60
71564;BMP180;59391;52.504;13.438;2023-05-02T10:05:40;101617.00;;;18.60
71564;BMP180;59391;52.504;13.438;2023-05-02T10:08:07;101629.00;;;18.60
71564;BMP180;59391;52.504;13.438;2023-05-02T10:10:45;101638.00;;;18.60
71564;BMP180;59391;52.504;13.438;2023-05-02T10:13:12;101637.00;;;18.70
71564;BMP180;59391;52.504;13.438;2023-05-02T10:15:43;101637.00;;;18.80
71564;BMP180;59391;52.504;13.438;2023-05-02T10:18:15;101639.00;;;18.80
71564;BMP180;59391;52.504;13.438;2023-05-02T10:20:59;101640.00;;;18.80
71564;BMP180;59391;52.504;13.438;2023-05-02T10:23:28;101631.00;;;18.80
71564;BMP180;59391;52.504;13.438;2023-05-02T10:25:56;101646.00;;;18.80
71564;BMP180;59391;52.504;13.438;2023-05-02T10:28:22;101661.00;;;18.70
71564;BMP180;59391;52.504;13.438;2023-05-02T10:30:49;101642.00;;;18.60
71564;BMP180;59391;52.504;13.438;2023-05-02T10:33:16;101654.00;;;18.60
71564;BMP180;59391;52.504;13.438;2023-05-02T10:35:44;101659.00;;;18.50
71564;BMP180;59391;52.504;13.438;2023-05-02T10:38:14;101668.00;;;18.60
71564;BMP180;59391;52.504;13.438;2023-05-02T10:40:42;101667.00;;;18.60
71564;BMP180;59391;52.504;13.438;2023-05-02T10:43:15;101678.00;;;18.70
71564;BMP180;59391;52.504;13.438;2023-05-02T10:45:41;101684.00;;;18.80
71564;BMP180;59391;52.504;13.438;2023-05-02T10:48:24;101693.00;;;18.80
71564;BMP180;59391;52.504;13.438;2023-05-02T10:50:55;101699.00;;;18.60
71564;BMP180;59391;52.504;13.438;2023-05-02T10:53:30;101695.00;;;18.60
71564;BMP180;59391;52.504;13.438;2023-05-02T10:56:20;101702.00;;;18.50
71564;BMP180;59391;52.504;13.438;2023-05-02T10:59:25;101706.00;;;18.30
71564;BMP180;59391;52.504;13.438;2023-05-02T11:01:51;101706.00;;;18.30
71564;BMP180;59391;52.504;13.438;2023-05-02T11:04:17;101723.00;;;18.30
71564;BMP180;59391;52.504;13.438;2023-05-02T11:11:50;101729.00;;;18.10
71564;BMP180;59391;52.504;13.438;2023-05-02T11:19:26;101733.00;;;17.90
71564;BMP180;59391;52.504;13.438;2023-05-02T11:24:55;101747.00;;;17.60
71564;BMP180;59391;52.504;13.438;2023-05-02T11:30:03;101743.00;;;17.50
71564;BMP180;59391;52.504;13.438;2023-05-02T11:35:19;101764.00;;;17.80
71564;BMP180;59391;52.504;13.438;2023-05-02T11:38:13;101766.00;;;18.00
71564;BMP180;59391;52.504;13.438;2023-05-02T11:40:39;101779.00;;;18.10
71564;BMP180;59391;52.504;13.438;2023-05-02T11:43:17;101787.00;;;18.10
71564;BMP180;59391;52.504;13.438;2023-05-02T11:45:43;101781.00;;;18.10
71564;BMP180;59391;52.504;13.438;2023-05-02T11:48:11;101782.00;;;18.10
71564;BMP180;59391;52.504;13.438;2023-05-02T11:50:53;101777.00;;;18.10
71564;BMP180;59391;52.504;13.438;2023-05-02T11:53:25;101778.00;;;18.10
71564;BMP180;59391;52.504;13.438;2023-05-02T11:55:57;101780.00;;;18.20
71564;BMP180;59391;52.504;13.438;2023-05-02T11:58:28;101777.00;;;18.30
71564;BMP180;59391;52.504;13.438;2023-05-02T12:00:57;101787.00;;;18.20
71564;BMP180;59391;52.504;13.438;2023-05-02T12:03:30;101791.00;;;18.20
71564;BMP180;59391;52.504;13.438;2023-05-02T12:06:14;101772.00;;;18.20
71564;BMP180;59391;52.504;13.438;2023-05-02T12:08:42;101790.00;;;18.20
71564;BMP180;59391;52.504;13.438;2023-05-02T12:11:08;101791.00;;;18.20
71564;BMP180;59391;52.504;13.438;2023-05-02T12:13:48;101797.00;;;18.10
71564;BMP180;59391;52.504;13.438;2023-05-02T12:16:15;101808.00;;;18.00
71564;BMP180;59391;52.504;13.438;2023-05-02T12:18:41;101813.00;;;17.90
71564;BMP180;59391;52.504;13.438;2023-05-02T12:21:08;101795.00;;;17.90
71564;BMP180;59391;52.504;13.438;2023-05-02T12:23:34;101824.00;;;17.80
71564;BMP180;59391;52.504;13.438;2023-05-02T12:26:22;101820.00;;;17.60
71564;BMP180;59391;52.504;13.438;2023-05-02T12:28:56;101822.00;;;17.60
71564;BMP180;59391;52.504;13.438;2023-05-02T12:31:24;101823.00;;;17.60
71564;BMP180;59391;52.504;13.438;2023-05-02T12:33:52;101822.00;;;17.60
71564;BMP180;59391;52.504;13.438;2023-05-02T12:36:22;101821.00;;;17.70
71564;BMP180;59391;52.504;13.438;2023-05-02T12:38:54;101821.00;;;17.90
71564;BMP180;59391;52.504;13.438;2023-05-02T12:41:38;101816.00;;;18.00
71564;BMP180;59391;52.504;13.438;2023-05-02T12:44:07;101808.00;;;18.10
71564;BMP180;59391;52.504;13.438;2023-05-02T12:46:33;101828.00;;;18.30
71564;BMP180;59391;52.504;13.438;2023-05-02T12:49:02;101840.00;;;18.40
71564;BMP180;59391;52.504;13.438;2023-05-02T12:51:28;101842.00;;;18.50
71564;BMP180;59391;52.504;13.438;2023-05-02T12:53:55;101824.00;;;18.60
71564;BMP180;59391;52.504;13.438;2023-05-02T12:56:21;101826.00;;;18.80
71564;BMP180;59391;52.504;13.438;2023-05-02T12:58:47;101822.00;;;19.10
71564;BMP180;59391;52.504;13.438;2023-05-02T13:01:14;101844.00;;;19.20
71564;BMP180;59391;52.504;13.438;2023-05-02T13:03:42;101835.00;;;19.10
71564;BMP180;59391;52.504;13.438;2023-05-02T13:06:08;101826.00;;;19.00
71564;BMP180;59391;52.504;13.438;2023-05-02T13:08:35;101828.00;;;19.00
71564;BMP180;59391;52.504;13.438;2023-05-02T13:11:02;101850.00;;;19.00
71564;BMP180;59391;52.504;13.438;2023-05-02T13:13:28;101827.00;;;18.90
71564;BMP180;59391;52.504;13.438;2023-05-02T13:15:54;101842.00;;;18.90
71564;BMP180;59391;52.504;13.438;2023-05-02T13:18:20;101848.00;;;19.00
71564;BMP180;59391;52.504;13.438;2023-05-02T13:20:46;101846.00;;;19.20
71564;BMP180;59391;52.504;13.438;2023-05-02T13:23:11;101850.00;;;19.50
71564;BMP180;59391;52.504;13.438;2023-05-02T13:25:37;101851.00;;;19.80
71564;BMP180;59391;52.504;13.438;2023-05-02T13:28:03;101858.00;;;19.90
71564;BMP180;59391;52.504;13.438;2023-05-02T13:30:28;101874.00;;;19.90
71564;BMP180;59391;52.504;13.438;2023-05-02T13:32:54;101850.00;;;19.90
71564;BMP180;59391;52.504;13.438;2023-05-02T13:35:22;101860.00;;;20.00
71564;BMP180;59391;52.504;13.438;2023-05-02T13:37:50;101859.00;;;20.10
71564;BMP180;59391;52.504;13.438;2023-05-02T13:40:15;101858.00;;;20.30
71564;BMP180;59391;52.504;13.438;2023-05-02T13:42:41;101859.00;;;20.30
71564;BMP180;59391;52.504;13.438;2023-05-02T13:45:07;101865.00;;;20.40
71564;BMP180;59391;52.504;13.438;2023-05-02T13:47:33;101836.00;;;20.40
71564;BMP180;59391;52.504;13.438;2023-05-02T13:49:59;101878.00;;;20.20
71564;BMP180;59391;52.504;13.438;2023-05-02T13:52:24;101887.00;;;20.00
71564;BMP180;59391;52.504;13.438;2023-05-02T13:54:50;101880.00;;;19.70
71564;BMP180;59391;52.504;13.438;2023-05-02T13:57:15;101878.00;;;19.50
71564;BMP180;59391;52.504;13.438;2023-05-02T13:59:41;101886.00;;;19.40
71564;BMP180;59391;52.504;13.438;2023-05-02T14:02:07;101887.00;;;19.50
71564;BMP180;59391;52.504;13.438;2023-05-02T14:04:32;101883.00;;;19.60
71564;BMP180;59391;52.504;13.438;2023-05-02T14:06:58;101884.00;;;19.60
71564;BMP180;59391;52.504;13.438;2023-05-02T14:09:24;101890.00;;;19.60
71564;BMP180;59391;52.504;13.438;2023-05-02T14:11:49;101906.00;;;19.50
71564;BMP180;59391;52.504;13.438;2023-05-02T14:14:15;101910.00;;;19.50
71564;BMP180;59391;52.504;13.438;2023-05-02T14:16:41;101905.00;;;19.50